Time;durP1;ratioP1;P1;durP2;ratioP2;P2;SDS_P1;SDS_P2;PMS_P1;PMS_P2;Temp;Humidity;BMP_temperature;BMP_pressure;BME280_temperature;BME280_humidity;BME280_pressure;Samples;Min_cycle;Max_cycle;Signal;HPM_P1;HPM_P2
2023/12/30 00:00:05;;;;;;;1.40;0.40;;;7.60;62.10;;;;;;4998068;28;20129;-77
2023/12/30 00:02:45;;;;;;;1.15;0.47;;;7.60;93.10;;;;;;4993981;28;20384;-77
2023/12/30 00:05:13;;;;;;;1.38;0.80;;;7.60;99.90;;;;;;5000154;28;20510;-77
2023/12/30 00:07:44;;;;;;;1.00;0.43;;;7.60;99.90;;;;;;4994868;28;20064;-77
2023/12/30 00:10:12;;;;;;;0.75;0.40;;;7.60;99.90;;;;;;5025070;28;20124;-78
2023/12/30 00:12:39;;;;;;;0.40;0.30;;;7.60;99.90;;;;;;5008608;28;20045;-77
2023/12/30 00:15:07;;;;;;;0.73;0.40;;;7.50;92.90;;;;;;4986372;28;20053;-77
2023/12/30 00:17:34;;;;;;;0.63;0.40;;;7.50;95.80;;;;;;4991977;28;20057;-77
2023/12/30 00:20:01;;;;;;;0.65;0.55;;;7.50;99.90;;;;;;4991622;28;20061;-77
2023/12/30 00:22:28;;;;;;;1.00;0.40;;;7.50;94.70;;;;;;5007815;28;20049;-77
2023/12/30 00:24:56;;;;;;;0.60;0.35;;;7.40;99.90;;;;;;5020586;28;20053;-76
2023/12/30 00:27:23;;;;;;;0.52;0.30;;;7.40;59.70;;;;;;5008400;28;20045;-77
2023/12/30 00:29:51;;;;;;;0.52;0.20;;;7.40;99.90;;;;;;5024135;28;20049;-77
2023/12/30 00:32:20;;;;;;;0.20;0.20;;;7.40;96.90;;;;;;5037515;28;20055;-78
2023/12/30 00:34:49;;;;;;;0.28;0.28;;;7.40;99.90;;;;;;5008317;28;20096;-78
2023/12/30 00:37:19;;;;;;;0.55;0.35;;;7.40;99.90;;;;;;5037902;28;20130;-77
2023/12/30 00:39:49;;;;;;;0.82;0.40;;;7.40;99.90;;;;;;5005444;28;20100;-78
2023/12/30 00:42:16;;;;;;;0.60;0.40;;;7.40;99.90;;;;;;5019496;28;20046;-77
2023/12/30 00:44:46;;;;;;;0.75;0.30;;;7.40;67.20;;;;;;4997563;28;20319;-77
2023/12/30 00:47:14;;;;;;;0.63;0.38;;;7.40;99.90;;;;;;5041508;28;20238;-78
2023/12/30 00:49:43;;;;;;;0.68;0.40;;;7.40;99.90;;;;;;5024912;28;20061;-78
2023/12/30 00:52:10;;;;;;;0.30;0.30;;;7.40;99.90;;;;;;5022883;28;20045;-77
2023/12/30 00:54:38;;;;;;;0.43;0.35;;;7.50;99.90;;;;;;5035012;28;20345;-77
2023/12/30 00:57:16;;;;;;;0.32;0.32;;;7.50;99.90;;;;;;5010155;28;20053;-77
2023/12/30 00:59:43;;;;;;;1.13;0.50;;;7.50;99.90;;;;;;5042408;28;20067;-78
2023/12/30 01:02:10;;;;;;;0.77;0.47;;;7.50;99.90;;;;;;5024423;28;20067;-77
2023/12/30 01:04:40;;;;;;;1.95;0.68;;;7.50;99.90;;;;;;5008496;28;20041;-78
2023/12/30 01:07:08;;;;;;;0.90;0.57;;;7.50;99.90;;;;;;4991817;28;20049;-77
2023/12/30 01:09:35;;;;;;;0.65;0.30;;;7.50;99.90;;;;;;4989561;28;20050;-78
2023/12/30 01:12:03;;;;;;;0.40;0.40;;;7.50;99.90;;;;;;5018215;28;20152;-77
2023/12/30 01:14:30;;;;;;;2.15;0.70;;;7.50;99.90;;;;;;5014326;28;20050;-77
2023/12/30 01:16:57;;;;;;;0.50;0.30;;;7.50;99.90;;;;;;5015454;28;20497;-78
2023/12/30 01:19:25;;;;;;;0.60;0.38;;;7.50;99.90;;;;;;5002267;28;20049;-77
2023/12/30 01:21:53;;;;;;;0.60;0.40;;;7.40;99.90;;;;;;4987744;28;20076;-77
2023/12/30 01:24:20;;;;;;;1.35;0.40;;;7.40;99.90;;;;;;5014553;28;20491;-77
2023/12/30 01:26:48;;;;;;;0.80;0.40;;;7.40;99.90;;;;;;4990203;28;20068;-78
2023/12/30 01:29:15;;;;;;;0.38;0.38;;;7.40;99.90;;;;;;4982238;28;20578;-77
2023/12/30 01:31:42;;;;;;;1.67;0.45;;;7.40;99.90;;;;;;5000145;28;20057;-77
2023/12/30 01:34:10;;;;;;;0.93;0.50;;;7.40;99.90;;;;;;4986828;28;20057;-77
2023/12/30 01:36:37;;;;;;;2.08;0.60;;;7.30;78.40;;;;;;5006091;28;20083;-77
2023/12/30 01:39:04;;;;;;;0.40;0.30;;;7.30;99.90;;;;;;5015748;28;20060;-77
2023/12/30 01:41:32;;;;;;;0.93;0.47;;;7.30;99.90;;;;;;4986943;28;20050;-77
2023/12/30 01:44:00;;;;;;;0.50;0.30;;;7.30;99.90;;;;;;5021232;28;20057;-77
2023/12/30 01:46:27;;;;;;;0.65;0.38;;;7.30;99.90;;;;;;5001412;28;20056;-77
2023/12/30 01:48:56;;;;;;;0.73;0.40;;;7.30;99.90;;;;;;4994698;28;20041;-78
2023/12/30 01:51:23;;;;;;;0.43;0.20;;;7.20;85.80;;;;;;4983990;28;20060;-77
2023/12/30 01:53:54;;;;;;;0.30;0.30;;;7.20;81.70;;;;;;5007136;28;20058;-78
2023/12/30 01:56:22;;;;;;;0.52;0.32;;;7.20;99.90;;;;;;4982912;28;20348;-77
2023/12/30 01:58:50;;;;;;;0.80;0.40;;;7.20;90.90;;;;;;5009692;28;20194;-77
2023/12/30 02:01:20;;;;;;;0.38;0.30;;;7.10;89.20;;;;;;5009024;28;20054;-77
2023/12/30 02:03:47;;;;;;;0.95;0.45;;;7.10;93.10;;;;;;4987528;28;20157;-77
2023/12/30 02:06:15;;;;;;;0.80;0.20;;;7.10;99.90;;;;;;5007637;28;20073;-78
2023/12/30 02:08:42;;;;;;;0.20;0.20;;;7.00;99.90;;;;;;5003362;28;20549;-77
2023/12/30 02:11:15;;;;;;;0.50;0.40;;;7.00;99.90;;;;;;5003058;28;20050;-77
2023/12/30 02:13:44;;;;;;;0.30;0.20;;;6.90;99.90;;;;;;4996264;28;20053;-77
2023/12/30 02:16:11;;;;;;;0.35;0.22;;;6.90;99.90;;;;;;4987359;28;20383;-77
2023/12/30 02:18:39;;;;;;;0.13;0.10;;;6.80;99.90;;;;;;5003827;28;20072;-77
2023/12/30 02:21:08;;;;;;;0.28;0.28;;;6.80;99.90;;;;;;5002595;28;20088;-77
2023/12/30 02:23:35;;;;;;;0.20;0.20;;;6.70;99.90;;;;;;5019791;28;20494;-77
2023/12/30 02:26:07;;;;;;;0.30;0.20;;;6.70;99.90;;;;;;5000451;28;20054;-77
2023/12/30 02:28:34;;;;;;;0.20;0.20;;;6.60;99.90;;;;;;5002251;28;20156;-77
2023/12/30 02:31:04;;;;;;;0.32;0.20;;;6.60;99.90;;;;;;5001842;23;20337;-82
2023/12/30 02:33:32;;;;;;;0.20;0.20;;;6.50;99.90;;;;;;5015171;28;20098;-82
2023/12/30 02:36:00;;;;;;;0.20;0.20;;;6.50;99.90;;;;;;5002488;28;20406;-82
2023/12/30 02:38:27;;;;;;;0.20;0.20;;;6.40;99.90;;;;;;5040148;28;20056;-80
2023/12/30 02:40:59;;;;;;;0.30;0.10;;;6.40;99.90;;;;;;5010254;28;20118;-82
2023/12/30 02:43:27;;;;;;;0.17;0.17;;;6.40;99.90;;;;;;5018976;28;20515;-81
2023/12/30 02:45:55;;;;;;;0.40;0.30;;;6.40;99.90;;;;;;5020365;28;20049;-81
2023/12/30 02:48:22;;;;;;;0.28;0.20;;;6.40;99.90;;;;;;5038647;28;20041;-82
2023/12/30 02:50:51;;;;;;;0.35;0.20;;;6.40;99.90;;;;;;5014451;28;20586;-82
2023/12/30 02:53:18;;;;;;;0.10;0.10;;;6.40;99.90;;;;;;5016027;28;20049;-81
2023/12/30 02:55:45;;;;;;;0.38;0.25;;;6.40;99.90;;;;;;5034576;28;20128;-81
2023/12/30 02:58:12;;;;;;;0.20;0.20;;;6.50;99.90;;;;;;5028034;28;20053;-81
2023/12/30 03:00:41;;;;;;;0.20;0.20;;;6.50;99.90;;;;;;5035058;28;20052;-81
2023/12/30 03:03:08;;;;;;;0.30;0.30;;;6.50;99.90;;;;;;5019351;28;20128;-81
2023/12/30 03:05:35;;;;;;;0.32;0.30;;;6.50;99.90;;;;;;5018566;28;20052;-81
2023/12/30 03:08:03;;;;;;;0.40;0.30;;;6.60;99.90;;;;;;5029742;28;20136;-82
2023/12/30 03:10:30;;;;;;;0.28;0.28;;;6.60;99.90;;;;;;5012851;28;20141;-81
2023/12/30 03:12:58;;;;;;;0.65;0.20;;;6.60;99.90;;;;;;5015028;28;20168;-82
2023/12/30 03:15:25;;;;;;;0.28;0.20;;;6.70;99.90;;;;;;5035229;28;20068;-82
2023/12/30 03:17:52;;;;;;;0.32;0.32;;;6.70;99.90;;;;;;5033213;28;20136;-82
2023/12/30 03:20:20;;;;;;;1.10;0.50;;;6.70;99.90;;;;;;5011330;28;20443;-82
2023/12/30 03:22:47;;;;;;;0.60;0.30;;;6.70;99.90;;;;;;5016366;28;20049;-82
2023/12/30 03:25:18;;;;;;;0.52;0.20;;;6.80;99.90;;;;;;5024860;28;20049;-83
2023/12/30 03:27:47;;;;;;;0.43;0.20;;;6.90;99.90;;;;;;5019891;28;20676;-82
2023/12/30 03:30:15;;;;;;;0.82;0.35;;;6.90;99.90;;;;;;5035363;28;20110;-82
2023/12/30 03:32:45;;;;;;;0.28;0.20;;;6.90;99.90;;;;;;5027266;28;20075;-81
2023/12/30 03:35:12;;;;;;;0.70;0.70;;;7.00;99.90;;;;;;5032319;28;20107;-82
2023/12/30 03:37:40;;;;;;;0.40;0.30;;;7.00;99.90;;;;;;5014211;28;20045;-82
2023/12/30 03:40:08;;;;;;;0.40;0.20;;;7.00;99.90;;;;;;5032966;28;20143;-82
2023/12/30 03:42:38;;;;;;;0.15;0.15;;;7.10;99.90;;;;;;5023903;28;20057;-82
2023/12/30 03:45:06;;;;;;;0.90;0.40;;;7.10;99.90;;;;;;5035340;28;20719;-82
2023/12/30 03:47:33;;;;;;;0.52;0.20;;;7.20;99.90;;;;;;5031041;28;20410;-82
2023/12/30 03:50:02;;;;;;;0.20;0.20;;;7.20;99.90;;;;;;5035052;28;20451;-82
2023/12/30 03:52:32;;;;;;;0.95;0.40;;;7.20;99.50;;;;;;5013424;28;20123;-82
2023/12/30 03:55:00;;;;;;;0.30;0.30;;;7.30;93.40;;;;;;5022761;28;20053;-82
2023/12/30 03:57:28;;;;;;;0.77;0.30;;;7.30;79.00;;;;;;5032979;28;20063;-82
2023/12/30 03:59:55;;;;;;;1.17;0.40;;;7.30;86.80;;;;;;5034487;28;20048;-82
2023/12/30 04:02:26;;;;;;;0.75;0.40;;;7.40;88.10;;;;;;5033980;28;20128;-82
2023/12/30 04:04:58;;;;;;;0.95;0.25;;;7.30;90.40;;;;;;5017457;28;20049;-81
2023/12/30 04:07:25;;;;;;;0.60;0.20;;;7.40;99.90;;;;;;5030962;28;20045;-83
2023/12/30 04:09:57;;;;;;;0.20;0.20;;;7.40;91.10;;;;;;5034701;28;20667;-82
2023/12/30 04:12:24;;;;;;;0.20;0.20;;;7.40;69.60;;;;;;5014039;28;20042;-83
2023/12/30 04:14:52;;;;;;;0.45;0.20;;;7.40;99.00;;;;;;5030849;28;20053;-82
2023/12/30 04:17:20;;;;;;;0.32;0.10;;;7.40;99.90;;;;;;5032096;28;20162;-83
2023/12/30 04:19:47;;;;;;;0.47;0.30;;;7.40;46.80;;;;;;5031619;28;20056;-83
2023/12/30 04:22:14;;;;;;;0.95;0.82;;;7.40;94.40;;;;;;5033144;28;20238;-83
2023/12/30 04:24:41;;;;;;;0.20;0.20;;;7.50;78.30;;;;;;5018146;28;20056;-83
2023/12/30 04:27:08;;;;;;;0.43;0.30;;;7.50;86.50;;;;;;5032452;28;20668;-83
2023/12/30 04:29:35;;;;;;;0.35;0.32;;;7.50;39.90;;;;;;5032160;28;20045;-83
2023/12/30 04:32:03;;;;;;;0.70;0.40;;;7.60;1.20;;;;;;5032993;28;20419;-83
2023/12/30 04:34:30;;;;;;;0.77;0.40;;;7.60;63.00;;;;;;5019294;28;20128;-84
2023/12/30 04:36:57;;;;;;;0.55;0.40;;;7.60;21.20;;;;;;5015888;28;20045;-83
2023/12/30 04:39:25;;;;;;;0.77;0.40;;;7.60;44.50;;;;;;5028363;28;20049;-82
2023/12/30 04:41:52;;;;;;;0.73;0.43;;;7.70;47.50;;;;;;5035284;28;20044;-82
2023/12/30 04:44:19;;;;;;;0.60;0.28;;;7.70;25.10;;;;;;5011123;28;20338;-82
2023/12/30 04:46:46;;;;;;;0.95;0.50;;;7.70;28.50;;;;;;5012878;28;20081;-82
2023/12/30 04:49:13;;;;;;;0.45;0.40;;;7.80;34.10;;;;;;5033980;28;20053;-82
2023/12/30 04:51:40;;;;;;;0.28;0.20;;;7.80;4.90;;;;;;5026965;28;20468;-83
2023/12/30 04:54:07;;;;;;;0.88;0.30;;;7.80;1.00;;;;;;5002334;28;20132;-82
2023/12/30 04:56:36;;;;;;;0.60;0.20;;;7.80;23.60;;;;;;5041795;28;20805;-82
2023/12/30 04:59:03;;;;;;;0.40;0.30;;;7.80;5.70;;;;;;5021138;28;20072;-82
2023/12/30 05:01:33;;;;;;;1.17;0.50;;;7.80;90.00;;;;;;5043354;28;20041;-82
2023/12/30 05:04:05;;;;;;;0.63;0.40;;;7.80;99.90;;;;;;5032842;28;20067;-82
2023/12/30 05:06:32;;;;;;;1.42;0.40;;;7.90;26.30;;;;;;5039149;28;20181;-82
2023/12/30 05:09:00;;;;;;;0.40;0.20;;;7.90;68.40;;;;;;5023039;28;20467;-83
2023/12/30 05:11:28;;;;;;;0.47;0.47;;;7.90;99.90;;;;;;5041089;28;20057;-82
2023/12/30 05:13:56;;;;;;;1.58;0.35;;;7.90;99.90;;;;;;5021652;28;20626;-83
2023/12/30 05:16:24;;;;;;;1.13;0.30;;;8.00;74.70;;;;;;5012255;28;20048;-82
2023/12/30 05:18:53;;;;;;;0.82;0.45;;;8.00;99.50;;;;;;5047655;28;20053;-83
2023/12/30 05:21:21;;;;;;;0.40;0.25;;;8.00;98.60;;;;;;5046569;28;20088;-82
2023/12/30 05:23:47;;;;;;;0.50;0.40;;;8.00;99.90;;;;;;5024491;28;20144;-82
2023/12/30 05:26:15;;;;;;;0.75;0.30;;;8.00;74.10;;;;;;5029395;28;20037;-82
2023/12/30 05:28:42;;;;;;;0.82;0.60;;;7.90;94.20;;;;;;5030971;28;20111;-82
2023/12/30 05:31:09;;;;;;;0.57;0.40;;;7.90;40.10;;;;;;5030010;28;20049;-82
2023/12/30 05:33:37;;;;;;;0.30;0.30;;;7.80;71.10;;;;;;5014073;28;20044;-83
2023/12/30 05:36:04;;;;;;;0.50;0.38;;;7.80;99.90;;;;;;5029265;28;20450;-82
2023/12/30 05:38:31;;;;;;;0.57;0.30;;;7.80;86.30;;;;;;5014009;28;20060;-82
2023/12/30 05:40:58;;;;;;;0.82;0.30;;;7.80;99.90;;;;;;5013214;28;20053;-82
2023/12/30 05:43:25;;;;;;;1.40;0.35;;;7.80;99.90;;;;;;5029152;28;20499;-83
2023/12/30 05:45:53;;;;;;;0.60;0.20;;;7.70;99.90;;;;;;5026303;28;20046;-83
2023/12/30 05:48:21;;;;;;;0.30;0.30;;;7.70;99.90;;;;;;5010124;28;20128;-82
2023/12/30 05:50:49;;;;;;;1.25;0.43;;;7.70;99.90;;;;;;5009401;28;20566;-83
2023/12/30 05:53:17;;;;;;;1.38;0.60;;;7.70;99.90;;;;;;5023191;28;20084;-82
2023/12/30 05:55:44;;;;;;;1.13;0.40;;;7.70;99.90;;;;;;5025496;28;20076;-83
2023/12/30 05:58:12;;;;;;;0.68;0.40;;;7.60;99.90;;;;;;5006631;28;20137;-82
2023/12/30 06:00:40;;;;;;;0.28;0.28;;;7.70;99.90;;;;;;5021249;28;20045;-82
2023/12/30 06:03:08;;;;;;;1.50;0.32;;;7.60;99.90;;;;;;5021506;28;20053;-82
2023/12/30 06:05:35;;;;;;;1.10;0.30;;;7.70;99.90;;;;;;5024770;28;20084;-81
2023/12/30 06:08:03;;;;;;;1.65;0.38;;;7.80;99.90;;;;;;5018949;28;20060;-81
2023/12/30 06:10:30;;;;;;;0.20;0.20;;;7.80;99.90;;;;;;5024942;28;20052;-82
2023/12/30 06:12:57;;;;;;;0.50;0.30;;;7.80;99.90;;;;;;5027832;28;20049;-82
2023/12/30 06:15:25;;;;;;;0.55;0.30;;;7.80;1.00;;;;;;5015886;28;20124;-82
2023/12/30 06:17:52;;;;;;;0.63;0.50;;;7.90;99.90;;;;;;5008194;28;20056;-82
2023/12/30 06:20:21;;;;;;;0.65;0.30;;;7.90;1.00;;;;;;5024673;28;20053;-83
2023/12/30 06:22:48;;;;;;;0.32;0.20;;;8.00;1.00;;;;;;5017457;28;20054;-83
2023/12/30 06:25:16;;;;;;;0.60;0.30;;;8.00;1.00;;;;;;4994348;28;20119;-83
2023/12/30 06:27:43;;;;;;;0.60;0.40;;;8.10;1.00;;;;;;5005466;28;20553;-83
2023/12/30 06:30:13;;;;;;;0.95;0.30;;;8.10;1.00;;;;;;5035596;28;20403;-82
2023/12/30 06:32:41;;;;;;;1.30;0.30;;;8.20;1.00;;;;;;5038770;28;20140;-83
2023/12/30 06:35:08;;;;;;;1.45;0.20;;;8.30;1.00;;;;;;5022946;28;20057;-83
2023/12/30 06:37:35;;;;;;;1.08;0.50;;;8.30;1.00;;;;;;5024843;28;20048;-84
2023/12/30 06:40:05;;;;;;;0.77;0.60;;;8.40;1.00;;;;;;5037921;28;20132;-83
2023/12/30 06:42:33;;;;;;;0.75;0.30;;;8.40;1.00;;;;;;5022908;28;20049;-83
2023/12/30 06:45:00;;;;;;;0.63;0.40;;;8.50;1.00;;;;;;5022710;28;20135;-83
2023/12/30 06:47:28;;;;;;;0.82;0.30;;;8.50;1.00;;;;;;5007230;28;20162;-84
2023/12/30 06:49:57;;;;;;;0.73;0.30;;;8.50;1.00;;;;;;5040435;28;20084;-82
2023/12/30 06:52:27;;;;;;;2.10;0.47;;;8.60;1.00;;;;;;5020127;28;20053;-83
2023/12/30 06:54:54;;;;;;;0.55;0.40;;;8.60;1.00;;;;;;5037085;28;20048;-83
2023/12/30 06:57:36;;;;;;;0.73;0.40;;;8.60;1.00;;;;;;5024974;28;20132;-83
2023/12/30 07:00:04;;;;;;;0.40;0.35;;;8.70;1.00;;;;;;5005295;28;20045;-83
2023/12/30 07:02:31;;;;;;;0.85;0.43;;;8.70;1.00;;;;;;5031384;28;20060;-83
2023/12/30 07:04:59;;;;;;;0.90;0.60;;;8.80;2.70;;;;;;5035823;28;20153;-83
2023/12/30 07:07:26;;;;;;;1.42;0.43;;;8.80;1.00;;;;;;5023591;28;20049;-83
2023/12/30 07:09:54;;;;;;;0.82;0.40;;;8.80;1.00;;;;;;5024507;28;20084;-83
2023/12/30 07:12:22;;;;;;;1.13;0.30;;;8.90;1.00;;;;;;5024298;28;20045;-83
2023/12/30 07:14:49;;;;;;;1.40;0.77;;;8.80;1.00;;;;;;5013353;28;20045;-83
2023/12/30 07:17:16;;;;;;;0.57;0.43;;;8.80;1.00;;;;;;5006728;28;20045;-83
2023/12/30 07:19:43;;;;;;;0.25;0.20;;;8.80;1.00;;;;;;5006690;28;20213;-84
2023/12/30 07:22:13;;;;;;;2.95;0.60;;;8.80;1.00;;;;;;5024700;28;20479;-84
2023/12/30 07:24:40;;;;;;;2.50;0.40;;;8.80;1.00;;;;;;5006378;28;20110;-83
2023/12/30 07:27:07;;;;;;;1.02;0.50;;;8.70;1.00;;;;;;5008209;28;20132;-82
2023/12/30 07:29:34;;;;;;;1.08;0.35;;;8.70;1.00;;;;;;5009596;28;20071;-83
2023/12/30 07:32:04;;;;;;;0.63;0.35;;;8.70;1.00;;;;;;5005850;28;20061;-84
2023/12/30 07:34:32;;;;;;;0.80;0.50;;;8.70;73.10;;;;;;5040430;28;20056;-84
2023/12/30 07:37:04;;;;;;;0.50;0.40;;;8.70;99.90;;;;;;5041269;28;20091;-81
2023/12/30 07:39:32;;;;;;;1.85;0.68;;;8.70;99.90;;;;;;5009454;28;20052;-83
2023/12/30 07:42:01;;;;;;;0.45;0.38;;;8.80;99.90;;;;;;5009348;28;20605;-81
2023/12/30 07:44:28;;;;;;;0.93;0.50;;;8.80;99.90;;;;;;5042642;28;20064;-82
2023/12/30 07:46:56;;;;;;;1.40;0.60;;;8.80;99.90;;;;;;5002785;28;20052;-82
2023/12/30 07:49:23;;;;;;;1.60;0.57;;;8.90;1.00;;;;;;5019261;28;20048;-82
2023/12/30 07:51:53;;;;;;;1.23;0.45;;;8.90;1.00;;;;;;5032789;28;20049;-82
2023/12/30 07:54:20;;;;;;;1.58;0.40;;;8.90;1.00;;;;;;5029132;28;20609;-81
2023/12/30 07:56:47;;;;;;;0.95;0.50;;;8.90;63.50;;;;;;5031000;28;20107;-82
2023/12/30 07:59:15;;;;;;;0.55;0.35;;;8.90;99.90;;;;;;5028988;28;20053;-82
2023/12/30 08:01:45;;;;;;;0.95;0.70;;;9.00;99.90;;;;;;5000093;28;20380;-82
2023/12/30 08:04:13;;;;;;;0.30;0.22;;;9.00;99.90;;;;;;4998553;28;20051;-81
2023/12/30 08:06:43;;;;;;;0.60;0.40;;;9.00;1.00;;;;;;5026868;28;20048;-83
2023/12/30 08:09:11;;;;;;;2.00;0.50;;;9.00;27.10;;;;;;5037026;28;20426;-82
2023/12/30 08:11:38;;;;;;;1.73;0.47;;;9.00;99.90;;;;;;4994622;28;20064;-82
2023/12/30 08:14:24;;;;;;;2.17;0.50;;;9.10;99.90;;;;;;5026800;28;20073;-82
2023/12/30 08:16:51;;;;;;;0.68;0.43;;;9.10;99.90;;;;;;5012939;28;20124;-82
2023/12/30 08:19:19;;;;;;;3.45;0.70;;;9.10;99.90;;;;;;5019603;28;20068;-82
2023/12/30 08:21:47;;;;;;;2.78;0.80;;;9.10;1.00;;;;;;5003920;28;20056;-82
2023/12/30 08:24:16;;;;;;;1.88;0.60;;;9.20;1.00;;;;;;5036060;28;20049;-82
2023/12/30 08:26:43;;;;;;;1.45;0.52;;;9.20;99.90;;;;;;5003894;28;20052;-81
2023/12/30 08:29:10;;;;;;;2.03;0.60;;;9.20;99.90;;;;;;5018042;28;20053;-82
2023/12/30 08:31:45;;;;;;;0.88;0.47;;;9.30;99.90;;;;;;5034199;28;20041;-82
2023/12/30 08:34:13;;;;;;;1.05;0.35;;;9.30;99.90;;;;;;5038786;28;20135;-82
2023/12/30 08:36:45;;;;;;;1.25;0.63;;;9.40;99.90;;;;;;5003306;28;20128;-81
2023/12/30 08:39:12;;;;;;;1.70;0.70;;;9.40;99.90;;;;;;5002855;28;20419;-82
2023/12/30 08:41:40;;;;;;;1.48;0.73;;;9.50;99.90;;;;;;5035528;28;20473;-82
2023/12/30 08:44:08;;;;;;;0.60;0.40;;;9.50;99.90;;;;;;5035798;28;20053;-81
2023/12/30 08:46:35;;;;;;;0.68;0.38;;;9.60;99.90;;;;;;5003324;28;20065;-81
2023/12/30 08:49:04;;;;;;;0.85;0.55;;;9.60;99.90;;;;;;5018713;28;20372;-81
2023/12/30 08:51:36;;;;;;;1.17;0.60;;;9.70;1.00;;;;;;5035595;28;20156;-81
2023/12/30 08:54:03;;;;;;;1.10;0.50;;;9.70;1.00;;;;;;5018627;28;20045;-81
2023/12/30 08:56:33;;;;;;;1.80;0.70;;;9.70;5.40;;;;;;5008057;28;20297;-81
2023/12/30 08:59:02;;;;;;;1.23;0.60;;;9.80;99.90;;;;;;5020064;28;20076;-84
2023/12/30 09:01:30;;;;;;;1.30;0.60;;;9.80;99.90;;;;;;5024678;28;21079;-84
2023/12/30 09:03:59;;;;;;;2.40;0.70;;;9.80;99.90;;;;;;5024350;28;20041;-83
2023/12/30 09:06:27;;;;;;;1.33;0.40;;;9.80;1.00;;;;;;5016047;28;20128;-84
2023/12/30 09:08:56;;;;;;;1.55;0.65;;;9.90;99.90;;;;;;5022852;28;20090;-82
2023/12/30 09:11:23;;;;;;;1.65;0.60;;;9.90;99.90;;;;;;5016350;28;20550;-82
2023/12/30 09:13:53;;;;;;;1.10;0.60;;;10.00;99.90;;;;;;5029452;28;20049;-83
2023/12/30 09:16:21;;;;;;;0.70;0.40;;;10.10;99.90;;;;;;5028777;28;20051;-86
2023/12/30 09:18:49;;;;;;;0.63;0.40;;;10.10;99.90;;;;;;5026943;28;20049;-84
2023/12/30 09:21:17;;;;;;;1.35;0.70;;;10.20;51.40;;;;;;5030946;28;20160;-84
2023/12/30 09:23:46;;;;;;;1.58;0.40;;;10.30;19.40;;;;;;5005813;28;20107;-84
2023/12/30 09:26:16;;;;;;;1.85;0.60;;;10.40;1.00;;;;;;5016594;28;20049;-84
2023/12/30 09:28:44;;;;;;;1.25;0.60;;;10.50;99.90;;;;;;5026818;28;20107;-83
2023/12/30 09:31:14;;;;;;;1.35;0.55;;;10.60;1.00;;;;;;5029059;28;20053;-84
2023/12/30 09:33:41;;;;;;;2.13;0.63;;;10.60;99.90;;;;;;5014255;28;20147;-83
2023/12/30 09:36:09;;;;;;;1.58;0.63;;;10.60;1.00;;;;;;5019622;28;20055;-84
2023/12/30 09:38:36;;;;;;;0.85;0.50;;;10.70;99.90;;;;;;5012635;28;20053;-84
2023/12/30 09:41:04;;;;;;;0.95;0.60;;;10.70;99.90;;;;;;5025733;28;20128;-85
2023/12/30 09:43:32;;;;;;;1.00;0.57;;;10.80;84.30;;;;;;5026351;28;20142;-85
2023/12/30 09:46:02;;;;;;;1.02;0.50;;;10.80;1.00;;;;;;5026293;28;20049;-85
2023/12/30 09:48:31;;;;;;;2.60;0.60;;;10.80;99.90;;;;;;5036979;28;20049;-83
2023/12/30 09:50:59;;;;;;;3.25;0.80;;;10.90;99.90;;;;;;5005227;28;20054;-79
2023/12/30 09:53:26;;;;;;;1.85;0.85;;;10.90;99.90;;;;;;5030148;28;20063;-77
2023/12/30 09:55:54;;;;;;;1.50;0.60;;;11.00;19.00;;;;;;5008564;28;20645;-77
2023/12/30 09:58:22;;;;;;;1.42;0.60;;;11.00;9.60;;;;;;5000472;28;20053;-77
2023/12/30 10:00:49;;;;;;;0.80;0.50;;;11.10;1.00;;;;;;5016382;28;20049;-77
2023/12/30 10:03:18;;;;;;;1.63;0.70;;;11.10;99.90;;;;;;5013423;28;20049;-77
2023/12/30 10:05:46;;;;;;;2.42;1.10;;;11.10;99.90;;;;;;5032809;28;20052;-77
2023/12/30 10:08:16;;;;;;;3.40;0.93;;;11.20;99.90;;;;;;4996658;28;20137;-77
2023/12/30 10:10:44;;;;;;;2.53;0.70;;;11.20;99.90;;;;;;4994702;28;20049;-77
2023/12/30 10:13:13;;;;;;;1.55;0.50;;;11.20;99.90;;;;;;5028950;28;20045;-77
2023/12/30 10:15:41;;;;;;;1.13;0.55;;;11.30;99.90;;;;;;5029265;28;20049;-77
2023/12/30 10:18:09;;;;;;;1.45;0.60;;;11.30;99.90;;;;;;4998331;28;20434;-77
2023/12/30 10:20:39;;;;;;;0.80;0.50;;;11.30;99.90;;;;;;4996093;28;20045;-77
2023/12/30 10:23:07;;;;;;;0.95;0.63;;;11.40;77.20;;;;;;5010866;28;20057;-77
2023/12/30 10:25:35;;;;;;;2.15;0.60;;;11.40;99.90;;;;;;5009216;28;20045;-77
2023/12/30 10:28:02;;;;;;;1.48;0.50;;;11.50;56.60;;;;;;5030162;28;20041;-76
2023/12/30 10:30:30;;;;;;;1.88;0.60;;;11.50;1.00;;;;;;5014244;28;20057;-76
2023/12/30 10:33:11;;;;;;;1.17;0.68;;;11.60;1.00;;;;;;5024974;28;20144;-76
2023/12/30 10:35:40;;;;;;;2.05;0.73;;;11.60;1.00;;;;;;4995697;28;20140;-77
2023/12/30 10:38:12;;;;;;;1.80;0.40;;;11.60;1.00;;;;;;5027752;28;20052;-77
2023/12/30 10:40:40;;;;;;;3.13;1.13;;;11.60;1.00;;;;;;5035321;28;20487;-77
2023/12/30 10:43:08;;;;;;;2.33;0.63;;;11.60;1.00;;;;;;5029492;28;20060;-77
2023/12/30 10:45:37;;;;;;;4.45;1.10;;;11.60;1.00;;;;;;5013366;28;20040;-78
2023/12/30 10:48:05;;;;;;;2.15;0.60;;;11.60;1.00;;;;;;5030334;28;20057;-76
2023/12/30 10:50:35;;;;;;;2.15;0.50;;;11.70;1.00;;;;;;5015236;28;20625;-77
2023/12/30 10:53:07;;;;;;;0.63;0.50;;;11.70;1.00;;;;;;5018962;28;20539;-76
2023/12/30 10:55:34;;;;;;;2.13;1.00;;;11.60;6.60;;;;;;5015476;28;20135;-76
2023/12/30 10:58:30;;;;;;;2.70;0.80;;;11.60;99.90;;;;;;5029507;28;20461;-76
2023/12/30 11:00:59;;;;;;;1.98;0.80;;;11.60;99.90;;;;;;5024248;28;20041;-78
2023/12/30 11:03:27;;;;;;;3.15;0.60;;;11.50;93.70;;;;;;5008707;28;20049;-76
2023/12/30 11:06:09;;;;;;;1.38;0.50;;;11.50;99.90;;;;;;4993543;28;20144;-76
2023/12/30 11:08:37;;;;;;;1.08;0.60;;;11.40;99.90;;;;;;5027056;28;21096;-76
2023/12/30 11:11:04;;;;;;;1.20;0.55;;;11.40;1.00;;;;;;4987245;28;20045;-76
2023/12/30 11:13:37;;;;;;;3.17;0.75;;;11.40;1.00;;;;;;5018262;28;20517;-75
2023/12/30 11:16:18;;;;;;;1.33;0.60;;;11.40;1.00;;;;;;5014096;28;20064;-76
2023/12/30 11:18:46;;;;;;;1.02;0.50;;;11.40;83.40;;;;;;5011547;28;20049;-76
2023/12/30 11:21:40;;;;;;;0.95;0.50;;;11.40;99.90;;;;;;5021219;28;20068;-76
2023/12/30 11:24:08;;;;;;;2.20;0.68;;;11.40;99.90;;;;;;5020962;28;20107;-76
2023/12/30 11:26:42;;;;;;;1.52;0.73;;;11.40;99.90;;;;;;5031694;28;20127;-76
2023/12/30 11:29:14;;;;;;;0.85;0.50;;;11.50;99.90;;;;;;5012027;28;20045;-75
2023/12/30 11:31:43;;;;;;;2.42;0.70;;;11.60;99.90;;;;;;5007112;28;20056;-81
2023/12/30 11:34:12;;;;;;;1.20;0.57;;;11.60;99.90;;;;;;4997608;28;20040;-83
2023/12/30 11:36:39;;;;;;;0.70;0.40;;;11.60;85.20;;;;;;4992964;28;20160;-82
2023/12/30 11:39:09;;;;;;;2.35;0.65;;;11.60;1.00;;;;;;5008479;28;20061;-82
2023/12/30 11:41:37;;;;;;;0.68;0.57;;;11.60;1.00;;;;;;5015682;28;20060;-82
2023/12/30 11:44:07;;;;;;;0.75;0.43;;;11.60;1.00;;;;;;5001221;28;20049;-81
2023/12/30 11:46:34;;;;;;;1.95;0.70;;;11.50;99.90;;;;;;5018415;28;20053;-87
2023/12/30 11:49:02;;;;;;;1.48;0.68;;;11.50;99.90;;;;;;4994427;28;20052;-81
2023/12/30 11:51:30;;;;;;;3.22;0.75;;;11.50;99.90;;;;;;4991601;28;20167;-82
2023/12/30 11:53:57;;;;;;;1.60;0.60;;;11.50;99.90;;;;;;4995201;28;20270;-82
2023/12/30 11:56:24;;;;;;;1.27;0.80;;;11.60;99.90;;;;;;5031398;28;20049;-80
2023/12/30 11:58:53;;;;;;;1.98;0.80;;;11.70;99.90;;;;;;5002163;28;20397;-83
2023/12/30 12:01:21;;;;;;;2.72;1.27;;;11.60;99.90;;;;;;5011345;28;20055;-83
2023/12/30 12:03:48;;;;;;;2.70;0.98;;;11.70;99.90;;;;;;5015292;28;20299;-82
2023/12/30 12:06:17;;;;;;;2.08;1.25;;;11.70;99.90;;;;;;5030264;28;20190;-83
2023/12/30 12:08:45;;;;;;;2.88;1.40;;;11.80;2.80;;;;;;5010554;28;20065;-84
2023/12/30 12:11:12;;;;;;;2.47;1.15;;;11.80;1.00;;;;;;5030620;28;20052;-84
2023/12/30 12:13:39;;;;;;;2.35;1.00;;;11.80;1.00;;;;;;5016806;28;20295;-83
2023/12/30 12:16:08;;;;;;;2.13;0.98;;;11.80;1.00;;;;;;5026136;28;20171;-83
2023/12/30 12:18:36;;;;;;;1.95;0.90;;;11.80;1.00;;;;;;5032022;28;20160;-83
2023/12/30 12:21:11;;;;;;;3.63;1.52;;;11.80;99.90;;;;;;5014934;28;20060;-83
2023/12/30 12:23:41;;;;;;;2.85;1.02;;;11.80;99.90;;;;;;5027972;28;20057;-83
2023/12/30 12:26:09;;;;;;;2.58;1.10;;;11.80;99.90;;;;;;5036996;28;20061;-89
2023/12/30 12:28:37;;;;;;;2.28;1.25;;;11.80;99.90;;;;;;5006004;28;20064;-89
2023/12/30 12:31:05;;;;;;;1.95;0.77;;;11.90;99.90;;;;;;5023408;28;20114;-89
2023/12/30 12:33:34;;;;;;;2.78;1.08;;;11.90;99.90;;;;;;5036955;28;20220;-81
2023/12/30 12:36:04;;;;;;;1.98;0.50;;;11.90;99.90;;;;;;5018659;28;20049;-83
2023/12/30 12:38:34;;;;;;;1.52;0.70;;;11.80;99.90;;;;;;5012539;28;20051;-82
2023/12/30 12:41:01;;;;;;;1.80;0.77;;;11.90;1.00;;;;;;4990700;28;20060;-80
2023/12/30 12:43:29;;;;;;;2.88;0.73;;;11.80;1.00;;;;;;5014445;28;20056;-81
2023/12/30 12:45:57;;;;;;;1.48;0.57;;;11.80;1.00;;;;;;5016472;28;20461;-81
2023/12/30 12:48:27;;;;;;;2.25;0.60;;;11.80;1.00;;;;;;5028684;28;20526;-78
2023/12/30 12:50:55;;;;;;;1.90;0.60;;;11.80;1.00;;;;;;5007851;28;20053;-84
2023/12/30 12:53:23;;;;;;;2.72;0.60;;;11.90;1.00;;;;;;5026117;28;20537;-80
2023/12/30 12:55:52;;;;;;;2.38;0.80;;;11.80;1.00;;;;;;5012056;28;20099;-81
2023/12/30 12:58:19;;;;;;;3.13;0.68;;;11.90;99.90;;;;;;4997269;28;20304;-80
2023/12/30 13:00:47;;;;;;;1.58;0.57;;;12.00;99.90;;;;;;5001017;28;20553;-80
2023/12/30 13:03:15;;;;;;;2.47;0.93;;;12.10;99.90;;;;;;5022692;28;20049;-80